Time;durP1;ratioP1;P1;durP2;ratioP2;P2;SDS_P1;SDS_P2;PMS_P1;PMS_P2;Temp;Humidity;BMP_temperature;BMP_pressure;BME280_temperature;BME280_humidity;BME280_pressure;Samples;Min_cycle;Max_cycle;Signal;HPM_P1;HPM_P2
2020/12/17 00:00:32;;;;;;;9.48;1.52;;;19.10;80.00;;;;;;4982059;28;20038;-72
2020/12/17 00:02:58;;;;;;;11.77;1.10;;;18.90;82.00;;;;;;4981462;28;20034;-69
2020/12/17 00:05:25;;;;;;;9.82;1.75;;;18.50;84.90;;;;;;4980622;28;20040;-68
2020/12/17 00:07:52;;;;;;;8.18;1.60;;;18.30;87.00;;;;;;4982882;28;20041;-68
2020/12/17 00:10:19;;;;;;;13.65;1.15;;;18.00;89.80;;;;;;4982658;28;20121;-71
2020/12/17 00:12:47;;;;;;;8.75;1.48;;;17.80;91.00;;;;;;4980230;28;20061;-72
2020/12/17 00:15:17;;;;;;;5.88;1.10;;;17.70;91.50;;;;;;4980903;28;20023;-71
2020/12/17 00:17:44;;;;;;;6.13;1.40;;;17.60;92.50;;;;;;4981913;28;20056;-71
2020/12/17 00:20:12;;;;;;;8.85;1.20;;;17.50;93.30;;;;;;4981727;28;20034;-67
2020/12/17 00:22:40;;;;;;;5.38;1.23;;;17.50;94.00;;;;;;4982570;28;20038;-67
2020/12/17 00:25:11;;;;;;;8.90;1.58;;;17.40;94.80;;;;;;4979206;28;20475;-67
2020/12/17 00:27:39;;;;;;;8.70;1.98;;;17.30;95.30;;;;;;4962952;28;20031;-69
2020/12/17 00:30:07;;;;;;;6.85;1.60;;;17.30;95.70;;;;;;4978525;28;20089;-69
2020/12/17 00:32:34;;;;;;;10.77;1.95;;;17.30;96.20;;;;;;4980606;28;20076;-70
2020/12/17 00:35:00;;;;;;;7.82;1.17;;;17.10;96.90;;;;;;4981329;28;20038;-69
2020/12/17 00:37:31;;;;;;;10.27;1.35;;;17.00;97.10;;;;;;4979873;28;20777;-68
2020/12/17 00:39:58;;;;;;;6.55;1.67;;;17.10;97.40;;;;;;4981686;28;20034;-67
2020/12/17 00:42:25;;;;;;;6.63;1.65;;;16.90;97.80;;;;;;4981006;28;20042;-68
2020/12/17 00:44:52;;;;;;;10.45;2.13;;;16.80;97.80;;;;;;4981500;28;20030;-68
2020/12/17 00:47:18;;;;;;;5.45;1.20;;;16.60;98.30;;;;;;4981465;28;20030;-66
2020/12/17 00:49:45;;;;;;;10.82;1.27;;;16.70;98.40;;;;;;4982797;28;20031;-67
2020/12/17 00:52:12;;;;;;;7.40;1.50;;;16.50;98.90;;;;;;4979810;28;20049;-67
2020/12/17 00:54:40;;;;;;;15.05;2.20;;;16.40;99.40;;;;;;4980377;28;20269;-67
2020/12/17 00:57:07;;;;;;;9.10;1.48;;;16.50;99.70;;;;;;4979634;28;20034;-67
2020/12/17 00:59:34;;;;;;;12.50;2.67;;;16.50;99.40;;;;;;4981680;28;20045;-67
2020/12/17 01:02:01;;;;;;;9.13;2.53;;;16.20;99.90;;;;;;4980367;28;20102;-68
2020/12/17 01:04:27;;;;;;;8.60;1.90;;;15.70;99.90;;;;;;4982042;28;20022;-69
2020/12/17 01:06:54;;;;;;;8.98;1.52;;;15.40;99.90;;;;;;4980369;28;20015;-74
2020/12/17 01:09:20;;;;;;;9.15;1.90;;;15.40;99.90;;;;;;4979799;28;20037;-72
2020/12/17 01:11:47;;;;;;;13.82;2.28;;;15.40;99.90;;;;;;4980617;28;20023;-71
2020/12/17 01:14:14;;;;;;;16.00;2.13;;;15.60;99.90;;;;;;4979086;28;20029;-72
2020/12/17 01:16:40;;;;;;;14.30;2.47;;;15.70;99.90;;;;;;4979477;28;20023;-72
2020/12/17 01:19:07;;;;;;;8.65;1.75;;;15.70;99.90;;;;;;4963553;28;20073;-72
2020/12/17 01:21:34;;;;;;;7.80;2.03;;;15.50;99.90;;;;;;4981769;28;20412;-73
2020/12/17 01:24:00;;;;;;;7.20;1.48;;;15.10;99.90;;;;;;4979399;28;20034;-72
2020/12/17 01:26:27;;;;;;;13.25;2.65;;;14.80;99.90;;;;;;4979541;28;20290;-71
2020/12/17 01:28:53;;;;;;;8.65;2.30;;;14.60;99.90;;;;;;4961639;28;20027;-72
2020/12/17 01:31:20;;;;;;;8.85;1.77;;;14.40;99.90;;;;;;4979614;28;20180;-72
2020/12/17 01:33:47;;;;;;;8.27;2.20;;;14.20;99.90;;;;;;4980753;28;20037;-72
2020/12/17 01:36:14;;;;;;;11.27;2.25;;;14.00;99.90;;;;;;4980631;28;20022;-72
2020/12/17 01:38:41;;;;;;;9.13;1.70;;;14.00;99.90;;;;;;4981539;28;20390;-73
2020/12/17 01:41:12;;;;;;;7.22;1.67;;;13.90;99.90;;;;;;4978969;28;20420;-72
2020/12/17 01:43:44;;;;;;;7.03;1.45;;;13.80;99.90;;;;;;4979848;28;20030;-70
2020/12/17 01:46:12;;;;;;;10.57;2.00;;;14.00;99.90;;;;;;4978028;28;20022;-70
2020/12/17 01:48:40;;;;;;;10.10;1.30;;;14.30;99.90;;;;;;4981183;28;20118;-70
2020/12/17 01:51:08;;;;;;;10.82;2.33;;;14.30;99.90;;;;;;4979888;28;20038;-69
2020/12/17 01:53:40;;;;;;;19.58;3.38;;;14.30;99.90;;;;;;4979683;28;20330;-70
2020/12/17 01:56:16;;;;;;;104.18;49.80;;;14.40;99.90;;;;;;4979961;28;20031;-70
2020/12/17 01:59:04;;;;;;;32.88;12.48;;;14.30;99.90;;;;;;4978456;28;20101;-71
2020/12/17 02:01:32;;;;;;;20.70;6.68;;;14.00;99.90;;;;;;4979496;28;20035;-69
2020/12/17 02:04:01;;;;;;;23.02;7.22;;;13.80;99.90;;;;;;4979626;28;20027;-71
2020/12/17 02:06:28;;;;;;;26.05;10.23;;;13.70;99.90;;;;;;4980080;28;20122;-69
2020/12/17 02:08:55;;;;;;;17.05;5.75;;;13.50;99.90;;;;;;4979633;28;20030;-68
2020/12/17 02:11:22;;;;;;;18.35;3.95;;;13.30;99.90;;;;;;4978097;28;20114;-68
2020/12/17 02:13:48;;;;;;;13.38;3.53;;;13.30;99.90;;;;;;4979555;28;20308;-68
2020/12/17 02:16:16;;;;;;;13.60;4.80;;;13.20;99.90;;;;;;4980133;28;20365;-67
2020/12/17 02:18:49;;;;;;;14.20;3.85;;;13.20;99.90;;;;;;4980241;28;20030;-69
2020/12/17 02:21:16;;;;;;;14.75;3.70;;;13.00;99.90;;;;;;4981529;28;20443;-68
2020/12/17 02:23:44;;;;;;;14.88;3.00;;;13.00;99.90;;;;;;4980042;28;20500;-69
2020/12/17 02:26:11;;;;;;;16.08;4.18;;;12.90;99.90;;;;;;4980543;28;20031;-68
2020/12/17 02:28:42;;;;;;;15.07;3.22;;;12.90;99.90;;;;;;4980481;28;20038;-69
2020/12/17 02:31:09;;;;;;;17.70;3.20;;;12.80;99.90;;;;;;4979936;28;20309;-70
2020/12/17 02:33:36;;;;;;;15.80;3.50;;;12.80;99.90;;;;;;4981235;28;20027;-67
2020/12/17 02:36:02;;;;;;;19.58;4.63;;;12.70;99.90;;;;;;4977595;28;20437;-68
2020/12/17 02:38:29;;;;;;;19.88;3.80;;;12.60;99.90;;;;;;4979359;28;20484;-68
2020/12/17 02:40:56;;;;;;;15.35;3.47;;;12.60;99.90;;;;;;4980419;28;20053;-69
2020/12/17 02:43:22;;;;;;;18.95;3.90;;;12.60;99.90;;;;;;4980921;28;20026;-68
2020/12/17 02:45:50;;;;;;;14.45;2.67;;;12.60;99.90;;;;;;4982779;28;20057;-70
2020/12/17 02:48:20;;;;;;;23.92;4.55;;;12.50;99.90;;;;;;4982369;28;20281;-69
2020/12/17 02:50:47;;;;;;;13.02;2.55;;;12.40;99.90;;;;;;4982499;28;20053;-70
2020/12/17 02:53:13;;;;;;;16.10;3.03;;;12.40;99.90;;;;;;4984169;28;20034;-69
2020/12/17 02:55:40;;;;;;;15.48;3.00;;;12.40;99.90;;;;;;4966065;28;20027;-67
2020/12/17 02:58:07;;;;;;;17.48;2.85;;;12.40;99.90;;;;;;4983516;28;20027;-68
2020/12/17 03:00:34;;;;;;;9.88;2.35;;;12.30;99.90;;;;;;4983854;28;20423;-70
2020/12/17 03:03:01;;;;;;;11.75;2.90;;;12.20;99.90;;;;;;4984316;28;20053;-71
2020/12/17 03:05:28;;;;;;;14.35;2.80;;;12.20;99.90;;;;;;5468962;23;20063;-71
2020/12/17 03:07:55;;;;;;;13.02;3.05;;;12.10;99.90;;;;;;4977643;28;20034;-68
2020/12/17 03:10:22;;;;;;;17.90;2.83;;;12.10;99.90;;;;;;4963513;28;20400;-69
2020/12/17 03:12:49;;;;;;;8.55;2.83;;;12.10;99.90;;;;;;4963886;28;20058;-69
2020/12/17 03:15:19;;;;;;;11.20;3.55;;;12.10;99.90;;;;;;4964299;28;20037;-70
2020/12/17 03:17:46;;;;;;;10.98;2.67;;;12.00;99.90;;;;;;4962314;28;20327;-71
2020/12/17 03:20:13;;;;;;;14.60;3.85;;;11.90;99.90;;;;;;4962508;28;20082;-69
2020/12/17 03:22:40;;;;;;;9.95;2.95;;;11.90;99.90;;;;;;4962224;28;20085;-69
2020/12/17 03:25:10;;;;;;;6.68;2.90;;;11.80;99.90;;;;;;4963011;28;20026;-72
2020/12/17 03:27:37;;;;;;;10.32;3.75;;;11.80;99.90;;;;;;4963337;28;20174;-74
2020/12/17 03:30:06;;;;;;;18.38;3.67;;;11.70;99.90;;;;;;4975820;28;20023;-74
2020/12/17 03:32:34;;;;;;;15.05;3.58;;;11.70;99.90;;;;;;4963949;28;20041;-74
2020/12/17 03:35:01;;;;;;;14.35;3.60;;;11.70;99.90;;;;;;4976477;28;20329;-73
2020/12/17 03:37:27;;;;;;;10.13;2.83;;;11.70;99.90;;;;;;5446471;23;20010;-74
2020/12/17 03:39:54;;;;;;;15.13;3.65;;;11.60;99.90;;;;;;4969782;28;20039;-74
2020/12/17 03:42:22;;;;;;;19.27;4.28;;;11.60;99.90;;;;;;4961193;28;20306;-73
2020/12/17 03:44:49;;;;;;;13.50;4.60;;;11.60;99.90;;;;;;4961418;28;20023;-73
2020/12/17 03:47:15;;;;;;;9.60;3.60;;;11.50;99.90;;;;;;4960064;28;20527;-74
2020/12/17 03:49:42;;;;;;;16.33;3.97;;;11.50;99.90;;;;;;4962289;28;20113;-73
2020/12/17 03:52:10;;;;;;;9.93;4.25;;;11.50;99.90;;;;;;4958210;28;20091;-74
2020/12/17 03:54:37;;;;;;;8.10;3.37;;;11.50;99.90;;;;;;4959829;28;20057;-73
2020/12/17 03:57:04;;;;;;;11.77;3.58;;;11.50;99.90;;;;;;4959494;28;20027;-73
2020/12/17 03:59:30;;;;;;;8.15;3.00;;;11.40;99.90;;;;;;4960108;28;20039;-74
2020/12/17 04:01:57;;;;;;;8.43;4.30;;;11.40;99.90;;;;;;4961135;28;20031;-79
2020/12/17 04:04:23;;;;;;;12.63;3.78;;;11.30;99.90;;;;;;4963077;28;20123;-78
2020/12/17 04:06:50;;;;;;;7.88;3.63;;;11.30;99.90;;;;;;4962298;28;20278;-76
2020/12/17 04:09:17;;;;;;;10.57;3.35;;;11.20;99.90;;;;;;4961070;28;20031;-76
2020/12/17 04:11:43;;;;;;;7.07;2.97;;;11.20;99.90;;;;;;4961097;28;20310;-76
2020/12/17 04:14:10;;;;;;;5.78;3.20;;;11.20;99.90;;;;;;4962109;28;20062;-77
2020/12/17 04:16:37;;;;;;;8.50;3.17;;;11.30;99.90;;;;;;4961508;28;20089;-77
2020/12/17 04:19:03;;;;;;;16.48;3.17;;;11.20;99.90;;;;;;4959175;28;20106;-76
2020/12/17 04:21:30;;;;;;;10.27;2.95;;;11.20;99.90;;;;;;4958730;28;20027;-76
2020/12/17 04:23:56;;;;;;;12.63;2.50;;;11.10;99.90;;;;;;4962384;28;20317;-78
2020/12/17 04:26:23;;;;;;;10.65;2.67;;;11.10;99.90;;;;;;4960830;28;20045;-76
2020/12/17 04:28:50;;;;;;;10.23;2.30;;;11.10;99.90;;;;;;4961564;28;20042;-77
2020/12/17 04:31:16;;;;;;;7.53;2.40;;;11.10;99.90;;;;;;4960222;28;20046;-76
2020/12/17 04:33:43;;;;;;;8.05;2.38;;;11.10;99.90;;;;;;4944051;28;20035;-74
2020/12/17 04:36:10;;;;;;;5.82;1.98;;;11.10;99.90;;;;;;4961760;28;20034;-77
2020/12/17 04:38:36;;;;;;;7.50;2.08;;;11.10;99.90;;;;;;4959925;28;20042;-77
2020/12/17 04:41:05;;;;;;;5.97;2.00;;;11.10;99.90;;;;;;4958397;28;20031;-76
2020/12/17 04:43:32;;;;;;;2.30;1.60;;;11.20;99.90;;;;;;4961537;28;20334;-75
2020/12/17 04:46:03;;;;;;;6.78;2.55;;;11.20;99.90;;;;;;4959945;28;21432;-76
2020/12/17 04:48:32;;;;;;;8.18;2.63;;;11.30;99.90;;;;;;4960865;28;20035;-74
2020/12/17 04:50:58;;;;;;;;;;;11.20;99.90;;;;;;4945207;28;20051;-74
2020/12/17 04:53:26;;;;;;;6.80;2.08;;;11.10;99.90;;;;;;5482976;22;19934;-74
2020/12/17 04:55:55;;;;;;;4.97;1.58;;;10.90;99.90;;;;;;4959640;28;20864;-75
2020/12/17 04:58:22;;;;;;;6.65;2.30;;;10.70;99.90;;;;;;4960716;28;20109;-75
2020/12/17 05:00:55;;;;;;;11.95;1.58;;;10.70;99.90;;;;;;4959089;28;20042;-76
2020/12/17 05:03:23;;;;;;;4.78;2.08;;;10.60;99.90;;;;;;4959417;28;20031;-75
2020/12/17 05:05:56;;;;;;;4.97;1.50;;;10.60;99.90;;;;;;4956626;28;20139;-75
2020/12/17 05:08:23;;;;;;;2.95;1.20;;;10.60;99.90;;;;;;4960112;28;20034;-74
2020/12/17 05:10:50;;;;;;;7.95;2.20;;;10.60;99.90;;;;;;4959210;28;20041;-71
2020/12/17 05:13:17;;;;;;;4.63;1.60;;;10.60;99.90;;;;;;4958235;28;20092;-72
2020/12/17 05:15:45;;;;;;;11.25;1.95;;;10.60;99.90;;;;;;4961259;28;20596;-72
2020/12/17 05:18:12;;;;;;;15.05;3.17;;;10.70;99.90;;;;;;4959598;28;20038;-75
2020/12/17 05:20:43;;;;;;;8.52;2.78;;;10.90;99.90;;;;;;4960170;28;20423;-78
2020/12/17 05:23:10;;;;;;;13.35;3.08;;;10.80;99.90;;;;;;4959918;28;20066;-74
2020/12/17 05:25:39;;;;;;;10.45;2.15;;;10.60;99.90;;;;;;4959815;28;20170;-71
2020/12/17 05:28:05;;;;;;;13.35;2.75;;;10.40;99.90;;;;;;4961336;28;20033;-76
2020/12/17 05:30:33;;;;;;;3.10;1.60;;;10.40;99.90;;;;;;4961167;28;20038;-78
2020/12/17 05:33:01;;;;;;;5.63;2.20;;;10.30;99.90;;;;;;4961091;28;20073;-74
2020/12/17 05:35:36;;;;;;;4.78;2.35;;;10.30;99.90;;;;;;4961472;28;20034;-74
2020/12/17 05:38:05;;;;;;;3.28;1.65;;;10.20;99.90;;;;;;4962917;28;20117;-75
2020/12/17 05:40:42;;;;;;;5.90;2.10;;;10.30;99.90;;;;;;4959198;28;20063;-75
2020/12/17 05:43:09;;;;;;;6.30;2.20;;;10.40;99.90;;;;;;4960223;28;20146;-74
2020/12/17 05:45:37;;;;;;;6.72;1.90;;;10.30;99.90;;;;;;4956575;28;20037;-75
2020/12/17 05:48:17;;;;;;;5.80;2.22;;;10.30;99.90;;;;;;4948071;28;20030;-74
2020/12/17 05:50:57;;;;;;;7.85;2.28;;;10.10;99.90;;;;;;4958219;28;20114;-74
2020/12/17 05:53:39;;;;;;;5.25;1.63;;;9.90;99.90;;;;;;4956249;28;20052;-74
2020/12/17 05:56:11;;;;;;;5.88;1.80;;;9.90;99.90;;;;;;4959295;28;20043;-75
2020/12/17 05:59:04;;;;;;;8.55;2.28;;;9.90;99.90;;;;;;4961318;28;20034;-75
2020/12/17 06:01:32;;;;;;;5.40;1.67;;;9.80;99.90;;;;;;4957149;28;20043;-72
2020/12/17 06:03:59;;;;;;;4.47;2.10;;;9.70;99.90;;;;;;4956473;28;20053;-74
2020/12/17 06:06:26;;;;;;;6.20;2.17;;;9.70;99.90;;;;;;4956917;28;20030;-74
2020/12/17 06:08:53;;;;;;;3.85;2.00;;;9.60;99.90;;;;;;4958629;28;20038;-74
2020/12/17 06:11:24;;;;;;;7.78;2.53;;;9.70;99.90;;;;;;4956028;28;20161;-72
2020/12/17 06:13:55;;;;;;;6.95;2.15;;;9.70;99.90;;;;;;5485488;23;20058;-72
2020/12/17 06:16:23;;;;;;;8.90;2.47;;;9.70;99.90;;;;;;4998515;28;20108;-74
2020/12/17 06:18:58;;;;;;;8.05;2.50;;;9.60;99.90;;;;;;5005075;28;20067;-74
2020/12/17 06:21:25;;;;;;;8.60;2.30;;;9.60;99.90;;;;;;5006698;28;20034;-72
2020/12/17 06:23:59;;;;;;;7.25;2.08;;;9.70;99.90;;;;;;5005958;28;20030;-72
2020/12/17 06:26:27;;;;;;;6.20;2.30;;;9.60;99.90;;;;;;5005363;28;20061;-74
2020/12/17 06:28:55;;;;;;;4.63;2.28;;;9.60;99.90;;;;;;5004405;28;20034;-73
2020/12/17 06:31:26;;;;;;;6.20;2.35;;;9.60;99.90;;;;;;5005430;28;20022;-75
2020/12/17 06:34:03;;;;;;;7.38;2.75;;;9.50;99.90;;;;;;5004116;28;20108;-74
2020/12/17 06:36:42;;;;;;;4.35;2.42;;;9.40;99.90;;;;;;5004181;28;20137;-74
2020/12/17 06:39:09;;;;;;;5.30;2.00;;;9.40;99.90;;;;;;5003399;28;20038;-74
2020/12/17 06:41:36;;;;;;;8.25;2.30;;;9.50;99.90;;;;;;4984532;28;20073;-74
2020/12/17 06:44:35;;;;;;;6.07;2.30;;;9.50;99.90;;;;;;4984704;28;20384;-75
2020/12/17 06:47:08;;;;;;;5.45;2.45;;;9.50;99.90;;;;;;4979216;28;20046;-73
2020/12/17 06:49:34;;;;;;;11.70;2.80;;;9.40;99.90;;;;;;4984549;28;20876;-74
2020/12/17 06:52:09;;;;;;;6.10;2.70;;;9.30;99.90;;;;;;4983505;28;20023;-73
2020/12/17 06:54:41;;;;;;;8.30;2.15;;;9.20;99.90;;;;;;4983043;28;20116;-74
2020/12/17 06:57:11;;;;;;;6.95;2.97;;;9.20;99.90;;;;;;4986369;28;20374;-73
2020/12/17 06:59:39;;;;;;;9.25;2.78;;;9.20;99.90;;;;;;4982962;28;20027;-70
2020/12/17 07:02:06;;;;;;;7.82;2.50;;;9.20;99.90;;;;;;5483505;23;20172;-73
2020/12/17 07:04:49;;;;;;;10.65;3.17;;;9.20;99.90;;;;;;4980963;28;20105;-75
2020/12/17 07:07:22;;;;;;;5.22;2.88;;;9.20;99.90;;;;;;4979508;28;20031;-75
2020/12/17 07:09:54;;;;;;;10.23;2.53;;;9.10;99.90;;;;;;4982333;28;20030;-73
2020/12/17 07:12:36;;;;;;;8.30;2.30;;;9.00;99.90;;;;;;4982194;28;20048;-75
2020/12/17 07:15:24;;;;;;;4.53;2.70;;;9.00;99.90;;;;;;4964876;28;20034;-74
2020/12/17 07:17:50;;;;;;;8.30;2.70;;;8.90;99.90;;;;;;4982689;28;20046;-75
2020/12/17 07:20:32;;;;;;;5.75;2.53;;;8.90;99.90;;;;;;4981321;28;20381;-76
2020/12/17 07:22:59;;;;;;;10.02;3.00;;;9.00;99.90;;;;;;4982000;28;20026;-74
2020/12/17 07:25:33;;;;;;;11.77;3.17;;;9.10;99.90;;;;;;4981144;28;20590;-75
2020/12/17 07:28:00;;;;;;;7.40;2.80;;;9.10;99.90;;;;;;4982051;28;20847;-74
2020/12/17 07:30:27;;;;;;;7.50;2.63;;;9.00;99.90;;;;;;4981500;28;20042;-73
2020/12/17 07:32:53;;;;;;;7.38;3.13;;;9.00;99.90;;;;;;4981912;28;20034;-72
2020/12/17 07:35:23;;;;;;;12.55;3.80;;;9.10;99.90;;;;;;4982555;28;21048;-72
2020/12/17 07:37:58;;;;;;;8.68;3.45;;;9.00;99.90;;;;;;4982767;28;20030;-71
2020/12/17 07:40:33;;;;;;;6.10;3.10;;;9.00;99.90;;;;;;4980743;28;20030;-75
2020/12/17 07:43:16;;;;;;;10.48;3.60;;;9.00;99.90;;;;;;4982307;28;20027;-72
2020/12/17 07:45:51;;;;;;;6.03;3.25;;;9.00;99.90;;;;;;4980509;28;20050;-73
2020/12/17 07:48:41;;;;;;;9.23;3.78;;;8.90;99.90;;;;;;4980535;28;20041;-73
2020/12/17 07:51:19;;;;;;;11.85;3.45;;;8.80;99.90;;;;;;4982995;28;20373;-72
2020/12/17 07:53:50;;;;;;;13.65;4.40;;;8.80;99.90;;;;;;4982376;28;20034;-74
2020/12/17 07:56:18;;;;;;;7.78;2.50;;;8.80;99.90;;;;;;4982709;28;20033;-74
2020/12/17 07:58:45;;;;;;;6.82;2.78;;;8.80;99.90;;;;;;4965693;28;20142;-71
2020/12/17 08:01:13;;;;;;;10.80;2.63;;;8.80;99.90;;;;;;4971338;28;20558;-73
2020/12/17 08:03:49;;;;;;;9.52;3.58;;;8.80;99.90;;;;;;4981524;28;20055;-74
2020/12/17 08:06:23;;;;;;;7.20;3.13;;;8.80;99.90;;;;;;4982662;28;20061;-73
2020/12/17 08:08:58;;;;;;;12.23;2.47;;;8.70;99.90;;;;;;4979456;28;20049;-72
2020/12/17 08:11:25;;;;;;;6.38;2.80;;;8.70;99.90;;;;;;4981373;28;20172;-73
2020/12/17 08:14:07;;;;;;;6.35;2.55;;;8.60;99.90;;;;;;4981354;28;20038;-73
2020/12/17 08:16:34;;;;;;;5.85;3.05;;;8.60;99.90;;;;;;4982217;28;20030;-74
2020/12/17 08:19:02;;;;;;;7.72;2.92;;;8.60;99.90;;;;;;4982806;28;20092;-74
2020/12/17 08:21:29;;;;;;;6.40;2.70;;;8.70;99.90;;;;;;4984569;28;20045;-74
2020/12/17 08:23:56;;;;;;;4.82;2.65;;;8.70;99.90;;;;;;4981144;28;20030;-75
2020/12/17 08:26:27;;;;;;;8.23;2.67;;;8.60;99.90;;;;;;4982803;28;20046;-75
2020/12/17 08:28:55;;;;;;;10.02;2.80;;;8.90;99.90;;;;;;4981332;28;20033;-73
2020/12/17 08:31:23;;;;;;;9.88;2.75;;;8.80;99.90;;;;;;4982110;28;20030;-70
2020/12/17 08:34:00;;;;;;;7.43;2.75;;;8.70;99.90;;;;;;4982002;28;20145;-72
2020/12/17 08:36:34;;;;;;;7.45;2.78;;;8.60;99.90;;;;;;4981633;28;20043;-73
2020/12/17 08:39:07;;;;;;;11.25;3.35;;;8.60;99.90;;;;;;4984131;28;20097;-76
2020/12/17 08:41:39;;;;;;;9.38;3.03;;;8.60;99.90;;;;;;4980617;28;20026;-74
2020/12/17 08:44:07;;;;;;;4.28;2.50;;;8.60;99.90;;;;;;4982160;28;20057;-75
2020/12/17 08:46:44;;;;;;;7.53;3.00;;;8.70;99.90;;;;;;4980116;28;20026;-73
2020/12/17 08:49:12;;;;;;;9.32;3.50;;;8.60;99.90;;;;;;4981847;28;20030;-73
2020/12/17 08:51:45;;;;;;;13.77;3.47;;;8.60;99.90;;;;;;4981634;28;20027;-76
2020/12/17 08:54:31;;;;;;;9.57;3.30;;;8.40;99.90;;;;;;4982038;28;20045;-74
2020/12/17 08:57:09;;;;;;;16.05;4.13;;;8.40;99.90;;;;;;4980440;28;20470;-74
2020/12/17 08:59:37;;;;;;;10.07;3.05;;;8.30;99.90;;;;;;4981104;28;20104;-75
2020/12/17 09:02:03;;;;;;;8.70;4.10;;;8.50;99.90;;;;;;4980948;28;20062;-74
2020/12/17 09:04:30;;;;;;;12.30;2.95;;;8.60;99.90;;;;;;4983481;28;20088;-76
2020/12/17 09:07:02;;;;;;;8.48;3.05;;;8.50;99.90;;;;;;4983049;28;20365;-76
2020/12/17 09:09:31;;;;;;;14.68;3.08;;;8.40;99.90;;;;;;4968375;28;20026;-73
2020/12/17 09:11:59;;;;;;;6.93;3.60;;;8.50;99.90;;;;;;4987104;28;20026;-74
2020/12/17 09:14:34;;;;;;;5.50;2.67;;;8.40;99.90;;;;;;4987624;28;20041;-75
2020/12/17 09:17:17;;;;;;;11.23;2.92;;;8.30;99.90;;;;;;4986220;28;20086;-74
2020/12/17 09:19:46;;;;;;;9.75;2.85;;;8.30;99.90;;;;;;4991559;28;20031;-75
2020/12/17 09:22:22;;;;;;;7.53;3.58;;;8.20;99.90;;;;;;4987588;28;20026;-72
2020/12/17 09:24:54;;;;;;;14.00;2.70;;;8.20;99.90;;;;;;4980394;28;20046;-75
2020/12/17 09:27:31;;;;;;;9.65;3.47;;;8.30;99.90;;;;;;4980557;28;20031;-74
2020/12/17 09:30:11;;;;;;;5.63;2.33;;;8.40;99.90;;;;;;4981101;28;20034;-74
2020/12/17 09:32:39;;;;;;;6.80;2.90;;;8.40;99.90;;;;;;4980847;28;20508;-74
2020/12/17 09:35:11;;;;;;;6.28;2.72;;;8.50;99.90;;;;;;4981047;28;20022;-74
2020/12/17 09:37:41;;;;;;;8.45;2.42;;;8.50;99.90;;;;;;4981695;28;20034;-76
2020/12/17 09:40:10;;;;;;;9.57;2.67;;;8.40;99.90;;;;;;4980171;28;20026;-74
2020/12/17 09:42:37;;;;;;;9.68;2.33;;;8.30;99.90;;;;;;4979974;28;20023;-74
2020/12/17 09:45:15;;;;;;;8.80;3.47;;;8.20;99.90;;;;;;4981043;28;20034;-75
2020/12/17 09:47:42;;;;;;;7.75;2.60;;;8.30;99.90;;;;;;4962251;28;20033;-75
2020/12/17 09:50:14;;;;;;;11.73;3.20;;;8.50;99.90;;;;;;4981100;28;20335;-75
2020/12/17 09:52:43;;;;;;;9.30;2.85;;;8.40;99.90;;;;;;4980759;28;20137;-74
2020/12/17 09:55:11;;;;;;;10.50;2.60;;;8.40;99.90;;;;;;4978967;28;20041;-73
2020/12/17 09:57:47;;;;;;;8.90;2.67;;;8.20;99.90;;;;;;4980244;28;20099;-74
2020/12/17 10:00:15;;;;;;;16.88;3.15;;;8.20;99.90;;;;;;4981604;28;20106;-75
2020/12/17 10:02:42;;;;;;;15.30;2.88;;;8.20;99.90;;;;;;4981279;28;20050;-75
2020/12/17 10:05:11;;;;;;;21.67;3.10;;;8.20;99.90;;;;;;4979283;28;20041;-75
2020/12/17 10:07:38;;;;;;;10.00;2.75;;;8.10;99.90;;;;;;4980260;28;20023;-75
2020/12/17 10:10:05;;;;;;;8.45;2.70;;;8.10;99.90;;;;;;4978168;28;20519;-74
2020/12/17 10:12:32;;;;;;;9.75;3.35;;;8.00;99.90;;;;;;4979376;28;20038;-75
2020/12/17 10:14:58;;;;;;;6.68;2.45;;;7.90;99.90;;;;;;4980665;28;20097;-75
2020/12/17 10:17:25;;;;;;;6.40;3.13;;;7.80;99.90;;;;;;4979538;28;20699;-75
2020/12/17 10:19:51;;;;;;;12.65;3.33;;;7.90;99.90;;;;;;4979943;28;20104;-75
2020/12/17 10:22:17;;;;;;;8.52;3.65;;;7.80;99.90;;;;;;4979544;28;20014;-76
2020/12/17 10:24:44;;;;;;;13.85;3.65;;;7.80;99.90;;;;;;4981342;28;20033;-74
2020/12/17 10:27:11;;;;;;;10.90;2.83;;;7.80;99.90;;;;;;4978818;28;20023;-76
2020/12/17 10:29:37;;;;;;;19.83;3.25;;;7.80;99.90;;;;;;4979338;28;20023;-75
2020/12/17 10:32:04;;;;;;;17.65;2.78;;;7.80;99.90;;;;;;4979518;28;20023;-74
2020/12/17 10:34:30;;;;;;;8.10;3.58;;;7.70;99.90;;;;;;4979028;28;20037;-75
2020/12/17 10:36:57;;;;;;;10.63;3.33;;;7.60;99.90;;;;;;4981148;28;20133;-75
2020/12/17 10:39:23;;;;;;;11.25;3.72;;;7.60;99.90;;;;;;4980194;28;20094;-75
2020/12/17 10:41:50;;;;;;;9.93;2.97;;;7.60;99.90;;;;;;4978734;28;20417;-75
2020/12/17 10:44:16;;;;;;;7.47;2.97;;;7.50;99.90;;;;;;4979712;28;20293;-74
2020/12/17 10:46:43;;;;;;;8.07;3.28;;;7.60;99.90;;;;;;4979728;28;20027;-74
2020/12/17 10:49:09;;;;;;;8.93;2.53;;;7.50;99.90;;;;;;4980040;28;20373;-75
2020/12/17 10:51:36;;;;;;;7.60;2.05;;;7.60;99.90;;;;;;4979454;28;20509;-74
2020/12/17 10:54:03;;;;;;;12.07;2.92;;;7.60;99.90;;;;;;4979886;28;20302;-72
2020/12/17 10:56:30;;;;;;;8.35;2.72;;;7.70;99.90;;;;;;4978071;28;20031;-74
2020/12/17 10:58:57;;;;;;;7.75;2.85;;;7.60;99.90;;;;;;4979320;28;20129;-74
2020/12/17 11:01:24;;;;;;;12.43;2.28;;;7.60;99.90;;;;;;4962189;28;20041;-73
2020/12/17 11:03:52;;;;;;;11.95;2.55;;;7.60;99.90;;;;;;4978574;28;20385;-75
2020/12/17 11:06:21;;;;;;;7.90;3.00;;;7.60;99.90;;;;;;4982796;28;20026;-73
2020/12/17 11:08:48;;;;;;;8.10;2.38;;;7.60;99.90;;;;;;4982308;28;20352;-75
2020/12/17 11:11:15;;;;;;;10.30;2.92;;;7.50;99.90;;;;;;4982854;28;20034;-75
2020/12/17 11:13:42;;;;;;;5.80;2.30;;;7.50;99.90;;;;;;4982933;28;20113;-73
2020/12/17 11:16:09;;;;;;;7.53;2.13;;;7.60;99.90;;;;;;4982892;28;20030;-73
2020/12/17 11:18:36;;;;;;;8.10;2.95;;;7.70;99.90;;;;;;4984233;28;20061;-72
2020/12/17 11:21:02;;;;;;;13.25;2.67;;;7.70;99.90;;;;;;4965562;28;20049;-72
2020/12/17 11:23:29;;;;;;;15.18;3.22;;;7.60;99.90;;;;;;4982411;28;20110;-73
2020/12/17 11:25:55;;;;;;;5.80;2.70;;;7.50;99.90;;;;;;4981959;28;20062;-73
2020/12/17 11:28:22;;;;;;;9.80;2.92;;;7.50;99.90;;;;;;4982518;28;20030;-74
2020/12/17 11:30:48;;;;;;;9.50;2.95;;;7.60;99.90;;;;;;4982164;28;20325;-74
2020/12/17 11:33:15;;;;;;;15.35;2.75;;;7.50;99.90;;;;;;4982094;28;20161;-74
2020/12/17 11:35:42;;;;;;;8.95;3.10;;;7.40;99.90;;;;;;4981580;28;20058;-74
2020/12/17 11:38:08;;;;;;;10.82;2.50;;;7.40;99.90;;;;;;4982258;28;20101;-75
2020/12/17 11:40:35;;;;;;;9.35;3.15;;;7.30;99.90;;;;;;4981828;28;20046;-73
2020/12/17 11:43:02;;;;;;;8.65;3.08;;;7.30;99.90;;;;;;4981161;28;20022;-73
2020/12/17 11:45:28;;;;;;;20.95;2.58;;;7.30;99.90;;;;;;4982143;28;20082;-73
2020/12/17 11:47:55;;;;;;;10.40;3.00;;;7.30;99.90;;;;;;4982148;28;20061;-74
2020/12/17 11:50:21;;;;;;;10.82;2.70;;;7.40;99.90;;;;;;4982183;28;20110;-74
2020/12/17 11:52:48;;;;;;;15.15;3.13;;;7.50;99.90;;;;;;4982493;28;20030;-74
2020/12/17 11:55:15;;;;;;;9.57;2.58;;;7.60;99.90;;;;;;4982516;28;20034;-73
2020/12/17 11:57:42;;;;;;;9.52;3.80;;;7.80;99.90;;;;;;4982322;28;20039;-74
2020/12/17 12:00:09;;;;;;;7.32;2.83;;;7.90;99.90;;;;;;4981885;28;20089;-73
2020/12/17 12:02:35;;;;;;;4.35;2.38;;;7.70;99.90;;;;;;4982626;28;20194;-71
2020/12/17 12:05:03;;;;;;;4.75;2.38;;;7.60;99.90;;;;;;4982844;28;20019;-70
2020/12/17 12:07:30;;;;;;;10.18;2.53;;;7.60;99.90;;;;;;4981395;28;20104;-73
2020/12/17 12:09:56;;;;;;;11.20;2.42;;;7.70;99.90;;;;;;4983744;28;20242;-72
2020/12/17 12:12:23;;;;;;;6.38;2.20;;;7.60;99.90;;;;;;4980994;28;20042;-73
2020/12/17 12:14:49;;;;;;;5.38;3.08;;;7.40;99.90;;;;;;4981592;28;20149;-72
2020/12/17 12:17:16;;;;;;;11.02;2.80;;;7.30;99.90;;;;;;4981403;28;20041;-71
2020/12/17 12:19:42;;;;;;;5.70;2.75;;;7.30;99.90;;;;;;4981872;28;20619;-73
2020/12/17 12:22:10;;;;;;;14.13;3.05;;;7.50;99.90;;;;;;4981915;28;20022;-73
2020/12/17 12:24:37;;;;;;;8.13;2.25;;;7.50;99.90;;;;;;4980293;28;20029;-77
2020/12/17 12:27:03;;;;;;;8.57;2.70;;;7.40;99.90;;;;;;4980973;28;20037;-73
2020/12/17 12:29:30;;;;;;;7.82;2.75;;;7.30;99.90;;;;;;4981531;28;20054;-73
2020/12/17 12:31:56;;;;;;;7.47;2.90;;;7.20;99.90;;;;;;4980975;28;20385;-73
2020/12/17 12:34:25;;;;;;;6.40;2.75;;;7.10;99.90;;;;;;4982015;28;20057;-73
2020/12/17 12:36:55;;;;;;;6.13;2.50;;;7.10;99.90;;;;;;4982048;28;20027;-73
2020/12/17 12:39:22;;;;;;;12.90;3.05;;;7.10;99.90;;;;;;4981594;28;20389;-74
2020/12/17 12:41:51;;;;;;;11.38;2.28;;;7.10;99.90;;;;;;4979123;28;20034;-74
2020/12/17 12:44:18;;;;;;;9.60;2.55;;;7.00;99.90;;;;;;4981486;28;20030;-73
2020/12/17 12:46:48;;;;;;;6.50;2.25;;;7.00;99.90;;;;;;4980096;28;20109;-75
2020/12/17 12:49:15;;;;;;;19.92;2.67;;;7.10;99.90;;;;;;4981549;28;20026;-73
2020/12/17 12:51:42;;;;;;;16.45;3.13;;;7.10;99.90;;;;;;4963143;28;20089;-71
2020/12/17 12:54:09;;;;;;;8.25;3.05;;;7.10;99.90;;;;;;4980388;28;20030;-71
2020/12/17 12:56:36;;;;;;;11.23;3.28;;;7.10;99.90;;;;;;4980364;28;20036;-72